ESSP/NRK METAR and TAF weather

Enter ICAO airport designator
Station Type Date Time Source
ESSP METAR 2018/07/19 06:50 UTC NOAA

ESSP 190650Z 31003KT 270V350 CAVOK 24/15 Q1013


Station Type Date Time Source
ESSP Decoded METAR 2018/07/19 06:50 UTC NOAA

Norrkoping, Sweden (ESSP) 58-35N 016-09E 0M
Jul 19, 2018 - 02:50 AM EDT / 2018.07.19 0650 UTC
Wind: from the NW (310 degrees) at 3 MPH (3 KT) (direction variable):0
Visibility: greater than 7 mile(s):0
Temperature: 75 F (24 C)
Dew Point: 59 F (15 C)
Relative Humidity: 57%
Pressure (altimeter): 29.91 in. Hg (1013 hPa)
ob: ESSP 190650Z 31003KT 270V350 CAVOK 24/15 Q1013
cycle: 7

Station Type Date Time Source
ESSP TAF 2018/01/01 02:31 UTC NOAA

TAF ESSP 010130Z 0102/0206 16002KT 9999 BKN004 PROB40 0102/0106 4000 BR SCT004


Example: see airport list